Time;durP1;ratioP1;P1;durP2;ratioP2;P2;SDS_P1;SDS_P2;PMS_P1;PMS_P2;Temp;Humidity;BMP_temperature;BMP_pressure;BME280_temperature;BME280_humidity;BME280_pressure;Samples;Min_cycle;Max_cycle;Signal;HPM_P1;HPM_P2
2022/09/06 00:01:50;;;;;;;5.13;3.20;;;19.40;99.90;;;;;;5062808;28;20970;-78
2022/09/06 00:04:16;;;;;;;5.40;3.42;;;19.30;99.90;;;;;;5062558;28;20490;-77
2022/09/06 00:06:41;;;;;;;4.37;3.20;;;19.30;99.90;;;;;;5064813;28;20407;-78
2022/09/06 00:09:07;;;;;;;3.10;2.90;;;19.20;99.90;;;;;;5064254;28;20408;-78
2022/09/06 00:11:32;;;;;;;4.77;3.00;;;19.20;99.90;;;;;;5062214;28;20408;-78
2022/09/06 00:13:58;;;;;;;5.90;3.57;;;19.20;99.90;;;;;;5064795;28;20396;-78
2022/09/06 00:16:24;;;;;;;3.95;3.42;;;19.20;99.90;;;;;;5070527;28;20482;-78
2022/09/06 00:18:53;;;;;;;4.67;3.23;;;19.20;99.90;;;;;;5058249;28;21046;-77
2022/09/06 00:21:28;;;;;;;4.15;3.00;;;19.10;99.90;;;;;;5060930;28;20404;-78
2022/09/06 00:23:54;;;;;;;5.57;3.20;;;19.10;99.90;;;;;;5066601;28;20390;-78
2022/09/06 00:26:21;;;;;;;3.30;3.00;;;19.00;99.90;;;;;;5055616;28;20971;-78
2022/09/06 00:28:46;;;;;;;3.73;3.40;;;19.00;99.90;;;;;;5065294;28;20499;-78
2022/09/06 00:31:21;;;;;;;3.90;2.87;;;19.10;99.90;;;;;;5063192;28;20435;-78
2022/09/06 00:33:47;;;;;;;4.07;3.50;;;19.00;99.90;;;;;;5068635;28;20437;-78
2022/09/06 00:36:13;;;;;;;3.50;2.90;;;19.00;99.90;;;;;;5064252;28;20490;-78
2022/09/06 00:38:40;;;;;;;4.40;3.60;;;19.00;99.90;;;;;;5058948;28;20404;-78
2022/09/06 00:41:07;;;;;;;3.58;3.28;;;19.00;99.90;;;;;;5062954;28;20450;-78
2022/09/06 00:43:33;;;;;;;4.00;3.30;;;18.90;99.90;;;;;;5060777;28;20393;-78
2022/09/06 00:46:00;;;;;;;4.40;3.10;;;18.80;99.90;;;;;;5053976;28;20405;-78
2022/09/06 00:48:25;;;;;;;3.75;3.10;;;18.90;99.90;;;;;;5063322;28;20409;-78
2022/09/06 00:50:54;;;;;;;6.03;3.30;;;18.90;99.90;;;;;;5068284;28;20403;-78
2022/09/06 00:53:20;;;;;;;4.50;3.60;;;19.00;99.90;;;;;;5058743;28;20403;-78
2022/09/06 00:55:47;;;;;;;3.35;3.05;;;19.00;99.90;;;;;;5061590;28;20397;-78
2022/09/06 00:58:13;;;;;;;3.88;3.50;;;19.10;99.90;;;;;;5067908;28;20404;-77
2022/09/06 01:00:38;;;;;;;3.15;2.95;;;19.10;99.90;;;;;;5065480;28;20412;-78
2022/09/06 01:03:05;;;;;;;4.80;3.20;;;19.10;99.90;;;;;;5063878;28;20980;-78
2022/09/06 01:05:37;;;;;;;3.50;3.20;;;19.10;99.90;;;;;;5072700;28;20399;-78
2022/09/06 01:08:35;;;;;;;3.42;3.13;;;19.00;99.90;;;;;;5061687;28;20469;-78
2022/09/06 01:11:25;;;;;;;5.00;3.17;;;18.90;99.90;;;;;;5063631;28;20428;-78
2022/09/06 01:13:57;;;;;;;3.80;3.50;;;18.90;99.90;;;;;;5066542;28;20439;-78
2022/09/06 01:16:38;;;;;;;3.75;3.45;;;18.80;99.90;;;;;;5061030;28;20408;-78
2022/09/06 01:19:37;;;;;;;3.08;2.60;;;18.90;99.90;;;;;;5065883;28;20427;-78
2022/09/06 01:22:21;;;;;;;3.30;3.05;;;18.90;99.90;;;;;;5068993;28;20387;-78
2022/09/06 01:25:29;;;;;;;6.53;3.45;;;18.90;99.90;;;;;;5061581;28;20972;-78
2022/09/06 01:28:23;;;;;;;4.50;3.40;;;19.00;99.90;;;;;;5067953;28;20404;-78
2022/09/06 01:31:18;;;;;;;4.05;3.50;;;18.80;99.90;;;;;;5063379;28;20466;-78
2022/09/06 01:34:16;;;;;;;6.05;3.28;;;18.80;99.90;;;;;;5051139;28;20393;-78
2022/09/06 01:36:50;;;;;;;3.72;3.03;;;18.80;99.90;;;;;;5054064;28;20393;-78
2022/09/06 01:39:26;;;;;;;6.32;3.60;;;18.70;99.90;;;;;;5053454;28;20446;-78
2022/09/06 01:41:53;;;;;;;3.90;3.20;;;18.70;99.90;;;;;;5085230;22;20470;-72
2022/09/06 01:44:21;;;;;;;3.60;3.30;;;18.80;99.90;;;;;;5069089;28;20668;-72
2022/09/06 01:47:05;;;;;;;3.83;3.10;;;18.90;99.90;;;;;;5069626;28;20395;-72
2022/09/06 01:50:11;;;;;;;4.28;3.20;;;18.90;99.90;;;;;;5069002;28;20391;-72
2022/09/06 01:53:13;;;;;;;4.03;3.10;;;19.00;99.90;;;;;;5031595;28;20835;-71
2022/09/06 01:55:45;;;;;;;5.22;3.25;;;19.00;99.90;;;;;;5049735;28;20385;-72
2022/09/06 01:58:35;;;;;;;5.82;3.78;;;18.90;99.90;;;;;;5049768;28;20389;-72
2022/09/06 02:01:28;;;;;;;4.15;3.47;;;18.90;99.90;;;;;;5049737;28;20389;-72
2022/09/06 02:04:00;;;;;;;3.83;3.43;;;18.80;99.90;;;;;;5049576;28;20751;-72
2022/09/06 02:06:33;;;;;;;3.83;3.15;;;18.90;99.90;;;;;;5049888;28;20409;-71
2022/09/06 02:09:10;;;;;;;3.80;3.30;;;19.00;99.90;;;;;;5049761;28;20389;-71
2022/09/06 02:11:48;;;;;;;3.60;3.30;;;19.00;99.90;;;;;;5049420;28;20461;-72
2022/09/06 02:14:20;;;;;;;3.70;3.40;;;19.10;99.90;;;;;;5049174;28;20931;-72
2022/09/06 02:16:48;;;;;;;3.70;3.20;;;19.00;99.90;;;;;;5031451;28;20527;-72
2022/09/06 02:19:20;;;;;;;4.13;3.00;;;19.00;99.90;;;;;;5049408;28;20377;-72
2022/09/06 02:21:48;;;;;;;4.70;3.60;;;19.10;99.90;;;;;;5049391;28;20464;-72
2022/09/06 02:24:29;;;;;;;4.97;3.30;;;19.10;99.90;;;;;;5052724;28;20386;-71
2022/09/06 02:26:55;;;;;;;3.35;3.03;;;19.10;99.90;;;;;;5053179;28;20413;-72
2022/09/06 02:29:20;;;;;;;4.93;3.20;;;19.00;99.90;;;;;;5052750;28;20918;-72
2022/09/06 02:32:07;;;;;;;4.90;3.60;;;19.10;99.90;;;;;;5052748;28;20404;-71
2022/09/06 02:34:37;;;;;;;3.60;3.30;;;19.20;99.90;;;;;;5034810;28;20389;-71
2022/09/06 02:37:03;;;;;;;3.72;3.42;;;19.20;99.90;;;;;;5035192;28;20455;-72
2022/09/06 02:39:29;;;;;;;3.83;3.25;;;19.30;99.90;;;;;;5034722;28;20389;-72
2022/09/06 02:41:54;;;;;;;4.13;3.40;;;19.30;99.90;;;;;;5052662;28;20397;-72
2022/09/06 02:44:20;;;;;;;3.53;3.23;;;19.30;99.90;;;;;;5052570;28;20385;-72
2022/09/06 02:46:46;;;;;;;4.60;3.40;;;19.20;99.90;;;;;;5052897;28;20389;-72
2022/09/06 02:49:11;;;;;;;5.53;3.60;;;19.20;99.90;;;;;;5052810;28;20906;-72
2022/09/06 02:51:38;;;;;;;3.33;3.03;;;19.30;99.90;;;;;;5052683;28;20378;-72
2022/09/06 02:54:05;;;;;;;6.32;3.50;;;19.40;99.90;;;;;;5052444;28;20385;-71
2022/09/06 02:56:32;;;;;;;4.13;3.72;;;19.30;99.90;;;;;;5034689;28;20473;-72
2022/09/06 02:58:58;;;;;;;5.50;4.00;;;19.40;99.90;;;;;;5035156;28;20392;-71
2022/09/06 03:01:24;;;;;;;4.05;3.40;;;19.40;99.90;;;;;;5052559;28;20474;-72
2022/09/06 03:03:49;;;;;;;3.42;3.13;;;19.40;99.90;;;;;;5052193;28;20468;-71
2022/09/06 03:06:15;;;;;;;3.73;3.10;;;19.40;99.90;;;;;;5052408;28;20424;-72
2022/09/06 03:08:40;;;;;;;4.60;3.57;;;19.30;99.90;;;;;;5052547;28;20398;-72
2022/09/06 03:11:06;;;;;;;4.65;3.15;;;19.40;99.90;;;;;;5052201;28;20389;-72
2022/09/06 03:13:31;;;;;;;8.60;3.23;;;19.40;99.90;;;;;;5052086;28;20780;-71
2022/09/06 03:15:58;;;;;;;4.22;3.78;;;19.30;99.90;;;;;;5052267;28;20455;-71
2022/09/06 03:18:25;;;;;;;3.93;3.30;;;19.30;99.90;;;;;;5052112;28;20381;-72
2022/09/06 03:20:52;;;;;;;5.68;3.15;;;19.30;99.90;;;;;;5052179;28;20886;-71
2022/09/06 03:23:20;;;;;;;3.95;3.50;;;19.30;99.90;;;;;;5051947;28;20436;-72
2022/09/06 03:25:46;;;;;;;4.00;3.70;;;19.30;99.90;;;;;;5051993;28;20463;-72
2022/09/06 03:28:12;;;;;;;3.80;3.50;;;19.20;99.90;;;;;;5051726;28;20389;-71
2022/09/06 03:30:38;;;;;;;4.68;3.70;;;19.20;99.90;;;;;;5052040;28;20879;-72
2022/09/06 03:33:04;;;;;;;6.20;3.58;;;19.20;99.90;;;;;;5051811;28;20385;-72
2022/09/06 03:35:30;;;;;;;5.03;3.97;;;19.20;99.90;;;;;;5052273;28;20381;-72
2022/09/06 03:37:55;;;;;;;4.35;3.40;;;19.10;99.90;;;;;;5052335;28;20391;-72
2022/09/06 03:40:21;;;;;;;4.45;4.05;;;19.10;99.90;;;;;;5051934;28;20752;-72
2022/09/06 03:42:46;;;;;;;7.33;3.80;;;19.00;99.90;;;;;;5051894;28;20408;-72
2022/09/06 03:45:12;;;;;;;4.70;3.40;;;19.00;99.90;;;;;;5052080;28;20401;-72
2022/09/06 03:47:38;;;;;;;3.97;3.58;;;18.90;99.90;;;;;;5052131;28;20412;-71
2022/09/06 03:50:05;;;;;;;3.50;3.20;;;18.90;99.90;;;;;;5051991;28;20378;-71
2022/09/06 03:52:30;;;;;;;3.60;3.30;;;18.80;99.90;;;;;;5051838;28;20384;-72
2022/09/06 03:54:56;;;;;;;4.10;3.70;;;18.80;99.90;;;;;;5051646;28;20393;-71
2022/09/06 03:57:22;;;;;;;6.15;3.30;;;18.80;99.90;;;;;;5051905;28;20428;-72
2022/09/06 03:59:47;;;;;;;6.30;3.40;;;18.70;99.90;;;;;;5051902;28;20725;-72
2022/09/06 04:02:13;;;;;;;5.30;3.30;;;18.60;99.90;;;;;;5051749;28;20563;-72
2022/09/06 04:04:38;;;;;;;4.73;3.90;;;18.60;99.90;;;;;;5051627;28;20412;-72
2022/09/06 04:07:04;;;;;;;4.00;3.50;;;18.60;99.90;;;;;;5051197;28;20393;-72
2022/09/06 04:09:29;;;;;;;5.10;3.80;;;18.60;99.90;;;;;;5051439;28;20373;-72
2022/09/06 04:11:55;;;;;;;4.40;3.40;;;18.70;99.90;;;;;;5051471;28;20377;-72
2022/09/06 04:14:21;;;;;;;5.20;3.80;;;18.80;99.90;;;;;;5051260;28;20591;-72
2022/09/06 04:16:46;;;;;;;5.22;3.83;;;18.80;99.90;;;;;;5051428;28;20410;-72
2022/09/06 04:19:12;;;;;;;4.70;3.50;;;18.80;99.90;;;;;;5051683;28;20380;-72
2022/09/06 04:21:37;;;;;;;6.07;3.50;;;19.00;99.90;;;;;;5051472;28;20884;-72
2022/09/06 04:24:05;;;;;;;4.73;3.70;;;19.00;99.90;;;;;;5051118;28;20382;-71
2022/09/06 04:26:31;;;;;;;4.95;3.20;;;19.00;99.90;;;;;;5051411;28;20459;-72
2022/09/06 04:28:57;;;;;;;4.77;3.73;;;18.80;99.90;;;;;;5051273;28;20461;-72
2022/09/06 04:31:22;;;;;;;5.40;3.30;;;18.80;99.90;;;;;;5051293;28;20389;-72
2022/09/06 04:33:48;;;;;;;4.10;3.40;;;18.80;99.90;;;;;;5051041;28;20374;-72
2022/09/06 04:36:13;;;;;;;5.20;3.70;;;18.70;99.90;;;;;;5051116;28;20443;-72
2022/09/06 04:38:41;;;;;;;5.28;3.42;;;18.80;99.90;;;;;;5051026;28;20725;-73
2022/09/06 04:41:09;;;;;;;5.15;3.97;;;18.80;99.90;;;;;;5050745;28;20424;-72
2022/09/06 04:43:35;;;;;;;4.57;3.60;;;18.90;99.90;;;;;;5050668;28;20974;-72
2022/09/06 04:46:21;;;;;;;4.10;3.20;;;18.80;99.90;;;;;;5032431;28;20818;-72
2022/09/06 04:48:48;;;;;;;6.13;3.33;;;18.70;99.90;;;;;;5051044;28;20423;-72
2022/09/06 04:51:13;;;;;;;4.30;3.73;;;18.70;99.90;;;;;;5050911;28;20377;-72
2022/09/06 04:53:39;;;;;;;5.20;3.60;;;18.70;99.90;;;;;;5050635;28;20378;-72
2022/09/06 04:56:05;;;;;;;5.15;3.47;;;18.70;99.90;;;;;;5032913;28;20397;-72
2022/09/06 04:58:31;;;;;;;4.55;3.50;;;18.60;99.90;;;;;;5050858;28;20442;-73
2022/09/06 05:00:56;;;;;;;6.43;4.20;;;18.70;99.90;;;;;;5050986;28;20805;-73
2022/09/06 05:03:22;;;;;;;7.37;3.70;;;18.70;99.90;;;;;;5050904;28;20384;-73
2022/09/06 05:05:47;;;;;;;5.38;4.00;;;18.80;99.90;;;;;;5050685;28;20895;-73
2022/09/06 05:08:13;;;;;;;4.20;3.50;;;18.80;99.90;;;;;;5044225;28;20413;-73
2022/09/06 05:10:39;;;;;;;3.90;3.50;;;18.80;99.90;;;;;;5047282;28;21548;-73
2022/09/06 05:13:04;;;;;;;5.37;3.53;;;18.90;99.90;;;;;;5040451;28;20413;-72
2022/09/06 05:15:30;;;;;;;7.03;3.40;;;19.00;99.90;;;;;;5036404;28;20901;-72
2022/09/06 05:18:03;;;;;;;4.77;3.60;;;19.00;99.90;;;;;;5022268;28;20407;-73
2022/09/06 05:20:29;;;;;;;7.10;3.80;;;18.90;99.90;;;;;;5026510;28;21032;-73
2022/09/06 05:22:55;;;;;;;4.07;3.50;;;18.80;99.90;;;;;;5038368;28;20848;-73
2022/09/06 05:25:20;;;;;;;7.00;3.50;;;18.90;99.90;;;;;;5048541;28;20524;-73
2022/09/06 05:27:46;;;;;;;9.68;7.07;;;18.90;99.90;;;;;;5048150;28;20870;-73
2022/09/06 05:30:12;;;;;;;7.82;4.00;;;18.90;99.90;;;;;;5028441;28;20397;-72
2022/09/06 05:32:38;;;;;;;5.57;4.07;;;18.90;99.90;;;;;;5045090;28;20522;-73
2022/09/06 05:35:04;;;;;;;4.40;3.40;;;18.90;99.90;;;;;;5043692;28;20421;-72
2022/09/06 05:37:29;;;;;;;8.70;3.83;;;18.90;99.90;;;;;;5040732;28;20415;-73
2022/09/06 05:39:55;;;;;;;6.22;3.33;;;19.00;99.90;;;;;;5042498;28;20414;-73
2022/09/06 05:42:20;;;;;;;6.03;3.30;;;19.00;99.90;;;;;;5038194;28;20414;-72
2022/09/06 05:44:46;;;;;;;7.93;3.97;;;19.00;99.90;;;;;;5026532;28;20787;-74
2022/09/06 05:47:12;;;;;;;5.82;3.53;;;19.10;99.90;;;;;;5042059;28;20413;-74
2022/09/06 05:49:37;;;;;;;6.75;3.83;;;19.00;99.90;;;;;;5049891;28;20388;-74
2022/09/06 05:52:03;;;;;;;7.30;4.20;;;19.00;99.90;;;;;;5043593;28;20894;-74
2022/09/06 05:54:29;;;;;;;6.35;3.90;;;19.10;99.90;;;;;;5037602;28;20403;-74
2022/09/06 05:56:54;;;;;;;6.70;3.70;;;19.10;99.90;;;;;;5043001;28;20779;-74
2022/09/06 05:59:20;;;;;;;8.43;4.03;;;19.10;99.90;;;;;;5043880;28;20389;-74
2022/09/06 06:01:48;;;;;;;6.73;3.90;;;19.20;99.90;;;;;;5041082;28;20395;-75
2022/09/06 06:04:14;;;;;;;5.65;3.70;;;19.20;99.90;;;;;;5031634;28;20395;-76
2022/09/06 06:06:39;;;;;;;5.28;3.47;;;19.30;99.90;;;;;;5050328;28;21214;-76
2022/09/06 06:09:05;;;;;;;8.27;4.07;;;19.40;99.90;;;;;;5044780;28;20466;-75
2022/09/06 06:11:31;;;;;;;7.57;3.70;;;19.50;99.90;;;;;;5054230;28;20451;-76
2022/09/06 06:13:57;;;;;;;5.57;4.10;;;19.50;99.90;;;;;;5052028;28;20487;-76
2022/09/06 06:16:24;;;;;;;6.10;3.70;;;19.60;99.90;;;;;;5043798;28;20524;-75
2022/09/06 06:18:50;;;;;;;6.60;4.18;;;19.80;99.90;;;;;;5043973;28;20405;-74
2022/09/06 06:21:24;;;;;;;6.63;4.05;;;19.90;99.90;;;;;;5044484;28;20408;-74
2022/09/06 06:23:51;;;;;;;8.35;3.63;;;20.00;99.90;;;;;;5049144;28;20439;-74
2022/09/06 06:26:17;;;;;;;6.70;3.90;;;20.20;99.90;;;;;;5032742;28;20494;-73
2022/09/06 06:28:43;;;;;;;4.97;3.20;;;20.20;99.90;;;;;;5045427;28;20409;-72
2022/09/06 06:31:10;;;;;;;7.13;4.10;;;20.30;99.90;;;;;;5044973;28;20487;-72
2022/09/06 06:33:37;;;;;;;8.40;4.10;;;20.40;99.90;;;;;;5050150;28;20393;-72
2022/09/06 06:36:17;;;;;;;8.02;3.72;;;20.50;99.90;;;;;;5055331;28;20729;-73
2022/09/06 06:38:44;;;;;;;6.45;3.90;;;20.50;99.90;;;;;;5040556;28;20397;-72
2022/09/06 06:41:12;;;;;;;6.95;3.92;;;20.60;99.90;;;;;;5031488;28;20408;-73
2022/09/06 06:43:38;;;;;;;6.22;3.95;;;20.80;99.90;;;;;;5045518;28;20539;-72
2022/09/06 06:46:05;;;;;;;7.45;4.00;;;20.90;99.90;;;;;;5042680;28;20441;-72
2022/09/06 06:48:30;;;;;;;5.63;4.00;;;21.10;99.90;;;;;;5047551;28;20453;-72
2022/09/06 06:50:56;;;;;;;5.70;3.90;;;21.10;99.90;;;;;;5047383;28;20377;-73
2022/09/06 06:53:22;;;;;;;8.07;3.80;;;21.10;99.90;;;;;;5042242;28;20742;-73
2022/09/06 06:55:48;;;;;;;8.70;3.75;;;21.10;99.90;;;;;;5047240;28;20432;-73
2022/09/06 06:58:15;;;;;;;7.38;3.75;;;20.90;99.90;;;;;;5045579;28;20446;-74
2022/09/06 07:00:41;;;;;;;5.20;3.85;;;20.90;99.90;;;;;;5046479;28;20401;-73
2022/09/06 07:03:08;;;;;;;6.93;3.72;;;20.90;99.90;;;;;;5030041;28;20807;-73
2022/09/06 07:05:34;;;;;;;5.32;3.80;;;21.00;99.90;;;;;;5049560;28;20746;-73
2022/09/06 07:07:59;;;;;;;5.80;4.30;;;20.90;99.90;;;;;;5048673;28;20462;-73
2022/09/06 07:10:25;;;;;;;5.82;4.35;;;20.80;99.90;;;;;;5043784;28;20395;-73
2022/09/06 07:12:50;;;;;;;5.43;3.90;;;20.80;99.90;;;;;;5043495;28;20385;-73
2022/09/06 07:15:17;;;;;;;4.50;3.70;;;20.80;99.90;;;;;;5042311;28;20909;-73
2022/09/06 07:17:43;;;;;;;5.28;3.72;;;20.70;99.90;;;;;;5043055;28;20390;-73
2022/09/06 07:20:09;;;;;;;9.77;3.33;;;20.60;99.90;;;;;;5026335;28;20854;-73
2022/09/06 07:22:35;;;;;;;7.70;4.40;;;20.60;99.90;;;;;;5041941;28;20383;-74
2022/09/06 07:25:01;;;;;;;8.52;4.22;;;20.80;99.90;;;;;;5046751;28;20938;-76
2022/09/06 07:27:27;;;;;;;7.60;4.20;;;20.80;99.90;;;;;;5028692;28;20374;-77
2022/09/06 07:29:53;;;;;;;6.63;4.40;;;20.80;99.90;;;;;;5021661;28;20406;-76
2022/09/06 07:32:18;;;;;;;5.93;4.73;;;20.80;99.90;;;;;;5050511;28;20895;-76
2022/09/06 07:34:44;;;;;;;7.03;4.20;;;20.80;99.90;;;;;;5050523;28;20392;-77
2022/09/06 07:37:09;;;;;;;6.57;3.77;;;20.80;99.90;;;;;;5044024;28;20464;-75
2022/09/06 07:39:35;;;;;;;6.53;4.35;;;20.90;99.90;;;;;;5052243;28;20393;-73
2022/09/06 07:42:02;;;;;;;7.82;4.22;;;20.80;99.90;;;;;;5078488;22;20833;-75
2022/09/06 07:44:28;;;;;;;4.70;4.00;;;20.80;99.90;;;;;;5071367;28;20815;-74
2022/09/06 07:46:53;;;;;;;8.13;4.20;;;20.80;99.90;;;;;;5071831;28;20414;-74
2022/09/06 07:49:19;;;;;;;5.40;4.85;;;20.80;99.90;;;;;;5062714;28;20806;-75
2022/09/06 07:51:46;;;;;;;10.67;4.73;;;20.70;99.90;;;;;;5065139;28;20760;-75
2022/09/06 07:54:11;;;;;;;6.30;5.25;;;20.70;99.90;;;;;;5040555;28;20383;-75
2022/09/06 07:56:37;;;;;;;7.47;4.60;;;20.80;99.90;;;;;;5040457;28;20405;-75
2022/09/06 07:59:02;;;;;;;5.80;5.10;;;20.70;99.90;;;;;;5035716;28;20395;-75
2022/09/06 08:01:33;;;;;;;6.93;5.40;;;20.60;99.90;;;;;;5031926;28;20486;-74
2022/09/06 08:04:04;;;;;;;8.00;5.25;;;20.50;99.90;;;;;;5037023;28;20391;-74
2022/09/06 08:06:32;;;;;;;5.47;4.65;;;20.50;99.90;;;;;;5022526;28;20406;-75
2022/09/06 08:08:59;;;;;;;7.03;5.40;;;20.40;99.90;;;;;;5040349;28;20394;-75
2022/09/06 08:11:28;;;;;;;6.30;4.50;;;20.50;99.90;;;;;;5023240;28;20386;-75
2022/09/06 08:13:55;;;;;;;6.80;4.60;;;20.40;99.90;;;;;;5047670;28;20378;-72
2022/09/06 08:16:22;;;;;;;7.30;4.70;;;20.40;99.90;;;;;;5036882;28;20534;-73
2022/09/06 08:18:52;;;;;;;6.35;4.60;;;20.50;99.90;;;;;;5035941;28;20406;-72
2022/09/06 08:21:19;;;;;;;8.87;4.63;;;20.50;99.90;;;;;;5035039;28;20461;-71
2022/09/06 08:23:47;;;;;;;6.33;4.30;;;20.50;99.90;;;;;;5049208;28;20381;-72
2022/09/06 08:26:14;;;;;;;7.47;4.20;;;20.60;99.90;;;;;;5048299;28;20494;-72
2022/09/06 08:28:40;;;;;;;5.73;4.77;;;20.50;99.90;;;;;;5031463;28;20379;-71
2022/09/06 08:31:07;;;;;;;8.93;5.77;;;20.30;99.90;;;;;;5031170;28;20441;-70
2022/09/06 08:33:33;;;;;;;8.52;6.22;;;20.40;99.90;;;;;;5030620;28;20391;-71
2022/09/06 08:35:59;;;;;;;8.18;6.25;;;20.40;99.90;;;;;;5044341;28;20394;-70
2022/09/06 08:38:25;;;;;;;9.48;6.20;;;20.50;99.90;;;;;;5051163;28;20380;-72
2022/09/06 08:41:08;;;;;;;8.10;5.90;;;20.50;99.90;;;;;;5087701;27;20435;-72
2022/09/06 08:43:35;;;;;;;11.00;5.80;;;20.60;99.90;;;;;;5067220;28;20369;-71
2022/09/06 08:46:01;;;;;;;7.65;5.50;;;20.60;99.90;;;;;;5067260;28;20438;-71
2022/09/06 08:48:31;;;;;;;8.82;4.93;;;20.70;99.90;;;;;;5067375;28;20376;-72
2022/09/06 08:51:18;;;;;;;8.80;4.85;;;20.80;99.90;;;;;;5067437;28;20443;-71
2022/09/06 08:53:47;;;;;;;7.03;4.10;;;20.90;99.90;;;;;;5066875;28;20384;-72
2022/09/06 08:56:36;;;;;;;7.22;4.38;;;21.10;99.90;;;;;;5067090;28;20391;-72
2022/09/06 08:59:12;;;;;;;8.15;4.60;;;21.10;99.90;;;;;;5067085;28;20413;-72
2022/09/06 09:02:04;;;;;;;9.60;4.55;;;21.10;99.90;;;;;;5067245;28;20401;-72
2022/09/06 09:04:30;;;;;;;4.88;3.88;;;21.20;99.90;;;;;;5066326;28;20407;-71
2022/09/06 09:07:08;;;;;;;8.05;4.30;;;21.20;99.90;;;;;;5067171;28;20388;-73
2022/09/06 09:09:34;;;;;;;6.10;4.00;;;21.30;99.90;;;;;;5067015;28;20385;-72
2022/09/06 09:12:00;;;;;;;8.27;4.60;;;21.20;99.90;;;;;;5066872;28;20408;-72
2022/09/06 09:14:34;;;;;;;6.85;4.50;;;21.30;99.90;;;;;;5066610;28;20385;-72
2022/09/06 09:17:19;;;;;;;6.63;3.50;;;21.40;99.90;;;;;;5066831;28;20395;-72
2022/09/06 09:19:44;;;;;;;5.65;4.05;;;21.50;99.90;;;;;;5065453;28;20492;-72
2022/09/06 09:22:13;;;;;;;6.27;4.00;;;21.70;99.90;;;;;;5066703;28;20917;-71
2022/09/06 09:24:39;;;;;;;7.37;4.20;;;21.70;99.90;;;;;;5066436;28;20381;-72
2022/09/06 09:27:10;;;;;;;7.60;4.00;;;21.80;99.90;;;;;;5066619;28;20747;-72
2022/09/06 09:29:53;;;;;;;5.65;3.50;;;21.90;99.90;;;;;;5066527;28;20440;-71
2022/09/06 09:32:31;;;;;;;5.70;3.25;;;22.00;99.90;;;;;;5066599;28;20384;-71
2022/09/06 09:35:29;;;;;;;10.00;3.50;;;22.10;99.90;;;;;;5064990;28;20388;-71
2022/09/06 09:38:09;;;;;;;5.50;3.50;;;22.30;99.90;;;;;;5064709;28;20400;-71
2022/09/06 09:41:02;;;;;;;5.97;4.07;;;22.50;99.90;;;;;;5083994;28;20687;-71
2022/09/06 09:43:36;;;;;;;6.97;4.00;;;22.70;99.90;;;;;;5087101;28;20534;-72
2022/09/06 09:46:27;;;;;;;6.22;3.50;;;22.90;99.90;;;;;;5082734;28;20777;-71
2022/09/06 09:49:23;;;;;;;4.88;3.80;;;22.90;99.90;;;;;;5083887;28;20395;-71
2022/09/06 09:52:06;;;;;;;4.80;3.10;;;23.00;99.90;;;;;;5075558;28;20467;-71
2022/09/06 09:54:36;;;;;;;6.63;3.83;;;23.00;99.90;;;;;;5071564;28;20441;-71
2022/09/06 09:57:10;;;;;;;5.93;3.30;;;22.80;99.90;;;;;;5071935;28;20391;-72
2022/09/06 09:59:35;;;;;;;4.50;2.67;;;22.80;99.90;;;;;;5072875;28;20766;-71
2022/09/06 10:02:15;;;;;;;4.25;2.70;;;22.80;99.90;;;;;;5070672;28;20379;-72
2022/09/06 10:04:48;;;;;;;3.22;2.70;;;23.00;99.90;;;;;;5073761;28;20766;-71
2022/09/06 10:07:20;;;;;;;4.13;3.00;;;23.20;99.90;;;;;;5082833;28;20421;-71
2022/09/06 10:09:57;;;;;;;3.95;2.70;;;23.30;99.90;;;;;;5066009;28;20494;-72
2022/09/06 10:12:35;;;;;;;5.50;2.50;;;23.40;99.90;;;;;;5067534;28;20486;-71
2022/09/06 10:15:01;;;;;;;3.25;2.30;;;23.40;99.90;;;;;;5071280;28;20391;-71
2022/09/06 10:17:33;;;;;;;4.00;2.65;;;23.60;99.90;;;;;;5068569;28;20407;-71
2022/09/06 10:20:03;;;;;;;2.80;1.90;;;23.90;99.90;;;;;;5072071;28;20954;-73
2022/09/06 10:22:34;;;;;;;4.20;3.00;;;24.10;99.90;;;;;;5072071;28;20387;-73
2022/09/06 10:25:27;;;;;;;4.70;2.17;;;24.00;99.90;;;;;;5072181;28;20444;-73
2022/09/06 10:28:32;;;;;;;5.67;2.10;;;24.10;99.90;;;;;;5072092;28;20445;-71
2022/09/06 10:31:35;;;;;;;1.83;1.70;;;24.20;99.90;;;;;;5069292;28;20441;-74
2022/09/06 10:34:31;;;;;;;5.35;2.05;;;24.20;99.90;;;;;;5071927;28;20401;-74
2022/09/06 10:37:22;;;;;;;6.40;2.20;;;24.20;99.90;;;;;;5069378;28;20379;-73
2022/09/06 10:39:59;;;;;;;3.60;2.10;;;24.30;99.90;;;;;;5067136;28;20853;-74
2022/09/06 10:42:37;;;;;;;3.63;1.73;;;24.20;99.90;;;;;;5071818;28;20441;-73
2022/09/06 10:45:22;;;;;;;3.00;1.83;;;24.10;99.90;;;;;;5050531;28;20396;-73
2022/09/06 10:48:22;;;;;;;4.68;1.95;;;24.10;99.90;;;;;;5065666;28;20434;-73
2022/09/06 10:51:02;;;;;;;3.70;2.00;;;24.20;99.90;;;;;;5051777;28;20404;-73
2022/09/06 10:53:47;;;;;;;4.03;2.07;;;24.30;99.90;;;;;;5051217;28;20378;-74
2022/09/06 10:56:34;;;;;;;2.50;1.70;;;24.40;99.90;;;;;;5059359;28;20379;-73
2022/09/06 10:59:25;;;;;;;2.70;1.80;;;24.60;99.90;;;;;;5071380;28;20479;-73
2022/09/06 11:02:17;;;;;;;3.67;2.58;;;24.60;99.90;;;;;;5070814;28;20441;-73
2022/09/06 11:04:47;;;;;;;4.82;2.60;;;24.70;99.90;;;;;;5071137;28;20437;-74
2022/09/06 11:07:30;;;;;;;4.25;3.17;;;24.60;99.90;;;;;;5071459;28;20384;-73
2022/09/06 11:10:21;;;;;;;4.17;3.10;;;24.50;99.90;;;;;;5067714;28;20952;-75
2022/09/06 11:12:56;;;;;;;3.80;2.70;;;24.60;99.90;;;;;;5064611;28;20813;-72
2022/09/06 11:15:23;;;;;;;5.15;3.13;;;24.60;99.90;;;;;;5068461;28;20408;-73
2022/09/06 11:18:13;;;;;;;5.67;2.80;;;24.60;99.90;;;;;;5071370;28;20495;-73
2022/09/06 11:20:56;;;;;;;3.60;2.50;;;24.80;99.90;;;;;;5053766;28;20419;-73
2022/09/06 11:23:30;;;;;;;5.47;2.80;;;25.00;99.90;;;;;;5077274;28;20438;-74
2022/09/06 11:26:12;;;;;;;4.00;3.58;;;25.10;99.90;;;;;;5070692;28;20395;-73
2022/09/06 11:28:47;;;;;;;4.22;3.13;;;25.10;99.90;;;;;;5069595;28;20486;-72
2022/09/06 11:31:25;;;;;;;7.40;3.60;;;25.20;99.90;;;;;;5067550;28;20766;-73
2022/09/06 11:34:11;;;;;;;6.32;2.92;;;25.10;99.90;;;;;;5069263;28;20494;-73
2022/09/06 11:36:44;;;;;;;4.95;3.50;;;25.10;99.90;;;;;;5072316;28;20395;-73
2022/09/06 11:39:10;;;;;;;5.22;3.50;;;24.80;99.90;;;;;;5070835;28;20775;-74
2022/09/06 11:41:40;;;;;;;5.50;3.60;;;24.60;99.90;;;;;;5070773;28;20880;-73
2022/09/06 11:44:09;;;;;;;6.38;3.40;;;24.50;99.90;;;;;;5070538;28;20917;-74
2022/09/06 11:46:34;;;;;;;7.50;3.65;;;24.50;99.90;;;;;;5070703;28;20388;-74
2022/09/06 11:49:14;;;;;;;6.55;3.50;;;24.50;99.90;;;;;;5070925;28;20391;-72
2022/09/06 11:51:42;;;;;;;5.90;3.65;;;24.50;99.90;;;;;;5079994;28;20878;-73
2022/09/06 11:54:16;;;;;;;5.82;3.15;;;24.40;99.90;;;;;;5059758;28;20800;-74
2022/09/06 11:57:08;;;;;;;6.68;2.90;;;24.40;99.90;;;;;;5071879;28;20387;-73
2022/09/06 11:59:37;;;;;;;6.30;3.60;;;24.40;99.90;;;;;;5077394;28;20560;-73
2022/09/06 12:02:35;;;;;;;5.97;3.65;;;24.40;99.90;;;;;;5070142;28;20387;-73
2022/09/06 12:05:02;;;;;;;6.63;3.53;;;24.30;99.90;;;;;;5081785;28;20409;-74
2022/09/06 12:07:36;;;;;;;4.28;2.53;;;24.30;99.90;;;;;;5075268;28;20446;-73
2022/09/06 12:10:30;;;;;;;4.50;2.78;;;24.30;99.90;;;;;;5060837;28;20403;-73
2022/09/06 12:12:57;;;;;;;3.20;2.90;;;24.30;99.90;;;;;;5068275;28;20804;-73
2022/09/06 12:15:42;;;;;;;5.43;2.72;;;24.20;99.90;;;;;;5059993;28;20396;-73
2022/09/06 12:18:07;;;;;;;5.43;2.60;;;24.20;99.90;;;;;;5059652;28;20460;-73
2022/09/06 12:20:50;;;;;;;4.50;3.03;;;24.20;99.90;;;;;;5069975;28;20407;-73
2022/09/06 12:23:33;;;;;;;6.23;3.20;;;24.20;99.90;;;;;;5068553;28;20411;-73
2022/09/06 12:26:06;;;;;;;3.38;3.03;;;24.20;99.90;;;;;;5067342;28;20384;-73
2022/09/06 12:28:42;;;;;;;5.10;2.70;;;24.20;99.90;;;;;;5067845;28;20675;-73
2022/09/06 12:31:24;;;;;;;4.72;2.90;;;24.30;99.90;;;;;;5068633;28;20407;-73
2022/09/06 12:33:51;;;;;;;6.90;3.00;;;24.40;99.90;;;;;;5069555;28;21114;-74
2022/09/06 12:36:21;;;;;;;3.95;2.70;;;24.50;99.90;;;;;;5070105;28;20754;-73
2022/09/06 12:39:00;;;;;;;4.55;2.53;;;24.50;99.90;;;;;;5069925;28;20427;-74
2022/09/06 12:41:28;;;;;;;3.30;2.50;;;24.70;99.90;;;;;;5069790;28;20517;-74
2022/09/06 12:43:55;;;;;;;4.18;2.75;;;24.70;99.90;;;;;;5089398;28;20385;-73
2022/09/06 12:46:23;;;;;;;6.97;2.80;;;24.80;99.90;;;;;;5088993;28;20390;-73
2022/09/06 12:49:04;;;;;;;5.30;2.80;;;24.80;99.90;;;;;;5082342;28;20426;-74
2022/09/06 12:51:30;;;;;;;4.05;2.80;;;24.90;99.90;;;;;;5066192;28;20395;-74
2022/09/06 12:54:02;;;;;;;3.85;2.33;;;25.10;99.90;;;;;;5067221;28;20427;-74
2022/09/06 12:56:31;;;;;;;4.72;3.00;;;25.30;99.90;;;;;;5069184;28;20415;-73
2022/09/06 12:59:18;;;;;;;4.03;2.60;;;25.40;99.90;;;;;;5067085;28;20958;-74
2022/09/06 13:02:07;;;;;;;3.33;2.22;;;25.60;99.90;;;;;;5060121;28;20483;-74
2022/09/06 13:04:43;;;;;;;3.47;2.50;;;25.50;99.90;;;;;;5055059;28;20430;-74
2022/09/06 13:07:13;;;;;;;3.10;2.40;;;25.40;99.90;;;;;;5064891;28;20431;-73
2022/09/06 13:09:45;;;;;;;5.23;2.60;;;25.40;99.90;;;;;;5067872;28;20403;-73